sensor_id;sensor_type;location;lat;lon;timestamp;temperature;humidity
9907;DHT22;4992;51.628;6.664;2022-10-12T00:01:20;5.00;99.90
9907;DHT22;4992;51.628;6.664;2022-10-12T00:03:46;5.00;99.90
9907;DHT22;4992;51.628;6.664;2022-10-12T00:06:17;5.00;99.90
9907;DHT22;4992;51.628;6.664;2022-10-12T00:08:44;5.00;99.90
9907;DHT22;4992;51.628;6.664;2022-10-12T00:11:21;5.00;99.90
9907;DHT22;4992;51.628;6.664;2022-10-12T00:13:47;4.90;99.90
9907;DHT22;4992;51.628;6.664;2022-10-12T00:16:15;4.90;99.90
9907;DHT22;4992;51.628;6.664;2022-10-12T00:18:41;4.90;99.90
9907;DHT22;4992;51.628;6.664;2022-10-12T00:21:15;4.90;99.90
9907;DHT22;4992;51.628;6.664;2022-10-12T00:23:41;4.90;99.90
9907;DHT22;4992;51.628;6.664;2022-10-12T00:26:12;4.90;99.90
9907;DHT22;4992;51.628;6.664;2022-10-12T00:28:39;4.90;99.90
9907;DHT22;4992;51.628;6.664;2022-10-12T00:31:13;4.80;99.90
9907;DHT22;4992;51.628;6.664;2022-10-12T00:33:39;4.80;99.90
9907;DHT22;4992;51.628;6.664;2022-10-12T00:36:20;4.80;99.90
9907;DHT22;4992;51.628;6.664;2022-10-12T00:38:48;4.80;99.90
9907;DHT22;4992;51.628;6.664;2022-10-12T00:41:15;4.80;99.90
9907;DHT22;4992;51.628;6.664;2022-10-12T00:43:42;4.70;99.90
9907;DHT22;4992;51.628;6.664;2022-10-12T00:46:32;4.70;99.90
9907;DHT22;4992;51.628;6.664;2022-10-12T00:49:08;4.70;99.90
9907;DHT22;4992;51.628;6.664;2022-10-12T00:51:34;4.80;99.90
9907;DHT22;4992;51.628;6.664;2022-10-12T00:54:03;4.70;99.90
9907;DHT22;4992;51.628;6.664;2022-10-12T00:56:32;4.80;99.90
9907;DHT22;4992;51.628;6.664;2022-10-12T00:59:04;4.70;99.90
9907;DHT22;4992;51.628;6.664;2022-10-12T01:01:32;4.80;99.90
9907;DHT22;4992;51.628;6.664;2022-10-12T01:03:58;4.80;99.90
9907;DHT22;4992;51.628;6.664;2022-10-12T01:06:24;4.80;99.90
9907;DHT22;4992;51.628;6.664;2022-10-12T01:08:50;4.80;99.90
9907;DHT22;4992;51.628;6.664;2022-10-12T01:11:16;4.70;99.90
9907;DHT22;4992;51.628;6.664;2022-10-12T01:13:41;4.70;99.90
9907;DHT22;4992;51.628;6.664;2022-10-12T01:16:27;4.70;99.90
9907;DHT22;4992;51.628;6.664;2022-10-12T01:19:18;4.60;99.90
9907;DHT22;4992;51.628;6.664;2022-10-12T01:21:53;4.60;99.90
9907;DHT22;4992;51.628;6.664;2022-10-12T01:27:29;4.50;99.90
9907;DHT22;4992;51.628;6.664;2022-10-12T01:30:05;4.50;99.90
9907;DHT22;4992;51.628;6.664;2022-10-12T01:35:57;4.50;99.90
9907;DHT22;4992;51.628;6.664;2022-10-12T01:38:44;4.40;99.90
9907;DHT22;4992;51.628;6.664;2022-10-12T01:41:26;4.40;99.90
9907;DHT22;4992;51.628;6.664;2022-10-12T01:43:54;4.40;99.90
9907;DHT22;4992;51.628;6.664;2022-10-12T01:48:48;4.40;99.90
9907;DHT22;4992;51.628;6.664;2022-10-12T01:56:34;4.40;99.90
9907;DHT22;4992;51.628;6.664;2022-10-12T02:01:59;4.40;99.90
9907;DHT22;4992;51.628;6.664;2022-10-12T02:07:11;4.40;99.90
9907;DHT22;4992;51.628;6.664;2022-10-12T02:09:39;4.40;99.90
9907;DHT22;4992;51.628;6.664;2022-10-12T02:12:19;4.30;99.90
9907;DHT22;4992;51.628;6.664;2022-10-12T02:14:55;4.30;99.90
9907;DHT22;4992;51.628;6.664;2022-10-12T02:17:22;4.30;99.90
9907;DHT22;4992;51.628;6.664;2022-10-12T02:19:51;4.30;99.90
9907;DHT22;4992;51.628;6.664;2022-10-12T02:22:19;4.30;99.90
9907;DHT22;4992;51.628;6.664;2022-10-12T02:24:47;4.30;99.90
9907;DHT22;4992;51.628;6.664;2022-10-12T02:27:14;4.30;99.90
9907;DHT22;4992;51.628;6.664;2022-10-12T02:29:44;4.30;99.90
9907;DHT22;4992;51.628;6.664;2022-10-12T02:32:36;4.30;99.90
9907;DHT22;4992;51.628;6.664;2022-10-12T02:35:26;4.40;99.90
9907;DHT22;4992;51.628;6.664;2022-10-12T02:38:02;4.40;99.90
9907;DHT22;4992;51.628;6.664;2022-10-12T02:40:48;4.40;99.90
9907;DHT22;4992;51.628;6.664;2022-10-12T02:43:23;4.40;99.90
9907;DHT22;4992;51.628;6.664;2022-10-12T02:45:52;4.40;99.90
9907;DHT22;4992;51.628;6.664;2022-10-12T02:48:20;4.30;99.90
9907;DHT22;4992;51.628;6.664;2022-10-12T02:50:50;4.30;99.90
9907;DHT22;4992;51.628;6.664;2022-10-12T02:53:17;4.30;99.90
9907;DHT22;4992;51.628;6.664;2022-10-12T02:55:51;4.30;99.90
9907;DHT22;4992;51.628;6.664;2022-10-12T02:58:17;4.30;99.90
9907;DHT22;4992;51.628;6.664;2022-10-12T03:00:43;4.30;99.90
9907;DHT22;4992;51.628;6.664;2022-10-12T03:03:10;4.30;99.90
9907;DHT22;4992;51.628;6.664;2022-10-12T03:05:35;4.30;99.90
9907;DHT22;4992;51.628;6.664;2022-10-12T03:08:01;4.40;99.90
9907;DHT22;4992;51.628;6.664;2022-10-12T03:10:26;4.30;99.90
9907;DHT22;4992;51.628;6.664;2022-10-12T03:12:53;4.30;99.90
9907;DHT22;4992;51.628;6.664;2022-10-12T03:15:18;4.30;99.90
9907;DHT22;4992;51.628;6.664;2022-10-12T03:17:44;4.30;99.90
9907;DHT22;4992;51.628;6.664;2022-10-12T03:20:10;4.30;99.90
9907;DHT22;4992;51.628;6.664;2022-10-12T03:22:35;4.20;99.90
9907;DHT22;4992;51.628;6.664;2022-10-12T03:25:01;4.20;99.90
9907;DHT22;4992;51.628;6.664;2022-10-12T03:27:26;4.20;99.90
9907;DHT22;4992;51.628;6.664;2022-10-12T03:29:52;4.20;99.90
9907;DHT22;4992;51.628;6.664;2022-10-12T03:32:17;4.20;99.90
9907;DHT22;4992;51.628;6.664;2022-10-12T03:34:43;4.20;99.90
9907;DHT22;4992;51.628;6.664;2022-10-12T03:37:09;4.20;99.90
9907;DHT22;4992;51.628;6.664;2022-10-12T03:39:34;4.20;99.90
9907;DHT22;4992;51.628;6.664;2022-10-12T03:42:00;4.20;99.90
9907;DHT22;4992;51.628;6.664;2022-10-12T03:44:26;4.10;99.90
9907;DHT22;4992;51.628;6.664;2022-10-12T03:46:51;4.10;99.90
9907;DHT22;4992;51.628;6.664;2022-10-12T03:49:17;4.20;99.90
9907;DHT22;4992;51.628;6.664;2022-10-12T03:51:42;4.10;99.90
9907;DHT22;4992;51.628;6.664;2022-10-12T03:54:08;4.20;99.90
9907;DHT22;4992;51.628;6.664;2022-10-12T03:56:33;4.20;99.90
9907;DHT22;4992;51.628;6.664;2022-10-12T03:58:59;4.20;99.90
9907;DHT22;4992;51.628;6.664;2022-10-12T04:01:24;4.20;99.90
9907;DHT22;4992;51.628;6.664;2022-10-12T04:03:50;4.20;99.90
9907;DHT22;4992;51.628;6.664;2022-10-12T04:06:16;4.20;99.90
9907;DHT22;4992;51.628;6.664;2022-10-12T04:08:42;4.20;99.90
9907;DHT22;4992;51.628;6.664;2022-10-12T04:11:07;4.30;99.90
9907;DHT22;4992;51.628;6.664;2022-10-12T04:13:33;4.30;99.90
9907;DHT22;4992;51.628;6.664;2022-10-12T04:16:03;4.30;99.90
9907;DHT22;4992;51.628;6.664;2022-10-12T04:18:29;4.20;99.90
9907;DHT22;4992;51.628;6.664;2022-10-12T04:20:55;4.20;99.90
9907;DHT22;4992;51.628;6.664;2022-10-12T04:23:20;4.20;99.90
9907;DHT22;4992;51.628;6.664;2022-10-12T04:25:46;4.20;99.90
9907;DHT22;4992;51.628;6.664;2022-10-12T04:28:11;4.30;99.90
9907;DHT22;4992;51.628;6.664;2022-10-12T04:30:37;4.30;99.90
9907;DHT22;4992;51.628;6.664;2022-10-12T04:33:03;4.30;99.90
9907;DHT22;4992;51.628;6.664;2022-10-12T04:35:29;4.30;99.90
9907;DHT22;4992;51.628;6.664;2022-10-12T04:37:55;4.30;99.90
9907;DHT22;4992;51.628;6.664;2022-10-12T04:40:20;4.30;99.90
9907;DHT22;4992;51.628;6.664;2022-10-12T04:42:46;4.20;99.90
9907;DHT22;4992;51.628;6.664;2022-10-12T04:45:11;4.20;99.90
9907;DHT22;4992;51.628;6.664;2022-10-12T04:47:37;4.20;99.90
9907;DHT22;4992;51.628;6.664;2022-10-12T04:50:03;4.10;99.90
9907;DHT22;4992;51.628;6.664;2022-10-12T04:52:29;4.10;99.90
9907;DHT22;4992;51.628;6.664;2022-10-12T04:54:54;4.10;99.90
9907;DHT22;4992;51.628;6.664;2022-10-12T04:57:20;4.10;99.90
9907;DHT22;4992;51.628;6.664;2022-10-12T04:59:45;4.00;99.90
9907;DHT22;4992;51.628;6.664;2022-10-12T05:02:11;4.00;99.90
9907;DHT22;4992;51.628;6.664;2022-10-12T05:04:36;4.00;99.90
9907;DHT22;4992;51.628;6.664;2022-10-12T05:07:02;4.00;99.90
9907;DHT22;4992;51.628;6.664;2022-10-12T05:09:28;4.00;99.90
9907;DHT22;4992;51.628;6.664;2022-10-12T05:11:53;4.00;99.90
9907;DHT22;4992;51.628;6.664;2022-10-12T05:14:19;4.00;99.90
9907;DHT22;4992;51.628;6.664;2022-10-12T05:16:44;4.00;99.90
9907;DHT22;4992;51.628;6.664;2022-10-12T05:19:10;3.90;99.90
9907;DHT22;4992;51.628;6.664;2022-10-12T05:21:36;3.90;99.90
9907;DHT22;4992;51.628;6.664;2022-10-12T05:24:01;3.80;99.90
9907;DHT22;4992;51.628;6.664;2022-10-12T05:26:27;3.80;99.90
9907;DHT22;4992;51.628;6.664;2022-10-12T05:28:52;3.80;99.90
9907;DHT22;4992;51.628;6.664;2022-10-12T05:31:18;3.80;99.90
9907;DHT22;4992;51.628;6.664;2022-10-12T05:33:43;3.80;99.90
9907;DHT22;4992;51.628;6.664;2022-10-12T05:36:09;3.80;99.90
9907;DHT22;4992;51.628;6.664;2022-10-12T05:38:34;3.80;99.90
9907;DHT22;4992;51.628;6.664;2022-10-12T05:41:00;3.80;99.90
9907;DHT22;4992;51.628;6.664;2022-10-12T05:43:26;3.80;99.90
9907;DHT22;4992;51.628;6.664;2022-10-12T05:45:51;3.70;99.90
9907;DHT22;4992;51.628;6.664;2022-10-12T05:48:17;3.70;99.90
9907;DHT22;4992;51.628;6.664;2022-10-12T05:50:42;3.70;99.90
9907;DHT22;4992;51.628;6.664;2022-10-12T05:53:08;3.70;99.90
9907;DHT22;4992;51.628;6.664;2022-10-12T05:55:33;3.70;99.90
9907;DHT22;4992;51.628;6.664;2022-10-12T05:57:59;3.60;99.90
9907;DHT22;4992;51.628;6.664;2022-10-12T06:00:24;3.60;99.90
9907;DHT22;4992;51.628;6.664;2022-10-12T06:02:50;3.60;99.90
9907;DHT22;4992;51.628;6.664;2022-10-12T06:05:16;3.60;99.90
9907;DHT22;4992;51.628;6.664;2022-10-12T06:07:41;3.60;99.90
9907;DHT22;4992;51.628;6.664;2022-10-12T06:10:08;3.50;99.90
9907;DHT22;4992;51.628;6.664;2022-10-12T06:12:33;3.50;99.90
9907;DHT22;4992;51.628;6.664;2022-10-12T06:14:59;3.50;99.90
9907;DHT22;4992;51.628;6.664;2022-10-12T06:17:24;3.50;99.90
9907;DHT22;4992;51.628;6.664;2022-10-12T06:19:50;3.50;99.90
9907;DHT22;4992;51.628;6.664;2022-10-12T06:22:15;3.40;99.90
9907;DHT22;4992;51.628;6.664;2022-10-12T06:24:41;3.50;99.90
9907;DHT22;4992;51.628;6.664;2022-10-12T06:27:07;3.50;99.90
9907;DHT22;4992;51.628;6.664;2022-10-12T06:29:32;3.50;99.90
9907;DHT22;4992;51.628;6.664;2022-10-12T06:31:58;3.50;99.90
9907;DHT22;4992;51.628;6.664;2022-10-12T06:34:23;3.50;99.90
9907;DHT22;4992;51.628;6.664;2022-10-12T06:36:49;3.60;99.90
9907;DHT22;4992;51.628;6.664;2022-10-12T06:39:14;3.60;99.90
9907;DHT22;4992;51.628;6.664;2022-10-12T06:41:40;3.60;99.90
9907;DHT22;4992;51.628;6.664;2022-10-12T06:44:06;3.60;99.90
9907;DHT22;4992;51.628;6.664;2022-10-12T06:46:32;3.70;99.90
9907;DHT22;4992;51.628;6.664;2022-10-12T06:48:58;3.70;99.90
9907;DHT22;4992;51.628;6.664;2022-10-12T06:51:23;3.70;99.90
9907;DHT22;4992;51.628;6.664;2022-10-12T06:53:49;3.80;99.90
9907;DHT22;4992;51.628;6.664;2022-10-12T06:56:14;3.90;99.90
9907;DHT22;4992;51.628;6.664;2022-10-12T06:58:40;3.90;99.90
9907;DHT22;4992;51.628;6.664;2022-10-12T07:01:07;4.00;99.90
9907;DHT22;4992;51.628;6.664;2022-10-12T07:03:35;4.10;99.90
9907;DHT22;4992;51.628;6.664;2022-10-12T07:06:08;4.20;99.90
9907;DHT22;4992;51.628;6.664;2022-10-12T07:08:34;4.40;99.90
9907;DHT22;4992;51.628;6.664;2022-10-12T07:11:04;4.50;99.90
9907;DHT22;4992;51.628;6.664;2022-10-12T07:13:31;4.70;99.90
9907;DHT22;4992;51.628;6.664;2022-10-12T07:15:57;4.90;99.90
9907;DHT22;4992;51.628;6.664;2022-10-12T07:18:23;5.10;99.90
9907;DHT22;4992;51.628;6.664;2022-10-12T07:20:49;5.20;99.90
9907;DHT22;4992;51.628;6.664;2022-10-12T07:23:15;5.40;99.90
9907;DHT22;4992;51.628;6.664;2022-10-12T07:25:46;5.60;99.90
9907;DHT22;4992;51.628;6.664;2022-10-12T07:28:12;5.80;99.90
9907;DHT22;4992;51.628;6.664;2022-10-12T07:30:37;6.00;99.90
9907;DHT22;4992;51.628;6.664;2022-10-12T07:33:03;6.20;99.90
9907;DHT22;4992;51.628;6.664;2022-10-12T07:35:28;6.40;99.90
9907;DHT22;4992;51.628;6.664;2022-10-12T07:37:54;6.50;99.90
9907;DHT22;4992;51.628;6.664;2022-10-12T07:40:19;6.70;99.90
9907;DHT22;4992;51.628;6.664;2022-10-12T07:42:45;6.80;99.90
9907;DHT22;4992;51.628;6.664;2022-10-12T07:45:10;6.90;99.90
9907;DHT22;4992;51.628;6.664;2022-10-12T07:47:36;7.00;99.90
9907;DHT22;4992;51.628;6.664;2022-10-12T07:50:01;7.10;99.90
9907;DHT22;4992;51.628;6.664;2022-10-12T07:52:27;7.20;99.90
9907;DHT22;4992;51.628;6.664;2022-10-12T07:54:53;7.30;99.90
9907;DHT22;4992;51.628;6.664;2022-10-12T07:57:18;7.40;99.90
9907;DHT22;4992;51.628;6.664;2022-10-12T07:59:44;7.40;99.90
9907;DHT22;4992;51.628;6.664;2022-10-12T08:02:12;7.50;99.90
9907;DHT22;4992;51.628;6.664;2022-10-12T08:04:38;7.60;99.90
9907;DHT22;4992;51.628;6.664;2022-10-12T08:07:03;7.60;99.90
9907;DHT22;4992;51.628;6.664;2022-10-12T08:09:29;7.70;99.90
9907;DHT22;4992;51.628;6.664;2022-10-12T08:11:54;7.80;99.90
9907;DHT22;4992;51.628;6.664;2022-10-12T08:14:23;7.80;99.90
9907;DHT22;4992;51.628;6.664;2022-10-12T08:16:48;7.90;99.90
9907;DHT22;4992;51.628;6.664;2022-10-12T08:19:14;8.00;99.90
9907;DHT22;4992;51.628;6.664;2022-10-12T08:21:39;8.20;99.90
9907;DHT22;4992;51.628;6.664;2022-10-12T08:24:07;8.30;99.90
9907;DHT22;4992;51.628;6.664;2022-10-12T08:26:33;8.50;99.90
9907;DHT22;4992;51.628;6.664;2022-10-12T08:29:00;8.60;99.90
9907;DHT22;4992;51.628;6.664;2022-10-12T08:31:26;8.70;99.90
9907;DHT22;4992;51.628;6.664;2022-10-12T08:33:51;8.80;99.90
9907;DHT22;4992;51.628;6.664;2022-10-12T08:36:17;8.90;99.90
9907;DHT22;4992;51.628;6.664;2022-10-12T08:38:42;9.00;99.90
9907;DHT22;4992;51.628;6.664;2022-10-12T08:44:27;9.40;99.90
9907;DHT22;4992;51.628;6.664;2022-10-12T08:47:01;9.50;99.90
9907;DHT22;4992;51.628;6.664;2022-10-12T08:49:30;9.60;99.90
9907;DHT22;4992;51.628;6.664;2022-10-12T08:52:00;9.70;99.90
9907;DHT22;4992;51.628;6.664;2022-10-12T08:54:36;9.90;99.90
9907;DHT22;4992;51.628;6.664;2022-10-12T08:57:03;10.00;99.90
9907;DHT22;4992;51.628;6.664;2022-10-12T08:59:29;10.10;99.90
9907;DHT22;4992;51.628;6.664;2022-10-12T09:02:20;10.20;99.90
9907;DHT22;4992;51.628;6.664;2022-10-12T09:04:55;10.30;99.90
9907;DHT22;4992;51.628;6.664;2022-10-12T09:07:43;10.40;99.90
9907;DHT22;4992;51.628;6.664;2022-10-12T09:15:59;10.90;99.90
9907;DHT22;4992;51.628;6.664;2022-10-12T09:18:40;10.90;99.90
9907;DHT22;4992;51.628;6.664;2022-10-12T09:21:09;11.00;99.90
9907;DHT22;4992;51.628;6.664;2022-10-12T09:23:40;11.00;99.90
9907;DHT22;4992;51.628;6.664;2022-10-12T09:28:57;11.10;99.90
9907;DHT22;4992;51.628;6.664;2022-10-12T09:34:15;11.20;99.90
9907;DHT22;4992;51.628;6.664;2022-10-12T09:36:41;11.20;99.90
9907;DHT22;4992;51.628;6.664;2022-10-12T09:39:14;11.20;99.90
9907;DHT22;4992;51.628;6.664;2022-10-12T09:41:43;11.20;99.90
9907;DHT22;4992;51.628;6.664;2022-10-12T09:44:43;11.20;99.90
9907;DHT22;4992;51.628;6.664;2022-10-12T09:47:30;11.20;99.90
9907;DHT22;4992;51.628;6.664;2022-10-12T09:49:58;11.20;99.90
9907;DHT22;4992;51.628;6.664;2022-10-12T09:57:31;11.30;99.90
9907;DHT22;4992;51.628;6.664;2022-10-12T09:59:59;11.40;99.90
9907;DHT22;4992;51.628;6.664;2022-10-12T10:02:27;11.50;99.90
9907;DHT22;4992;51.628;6.664;2022-10-12T10:04:53;11.50;99.90
9907;DHT22;4992;51.628;6.664;2022-10-12T10:07:28;11.60;99.90
9907;DHT22;4992;51.628;6.664;2022-10-12T10:17:48;11.80;99.90
9907;DHT22;4992;51.628;6.664;2022-10-12T10:20:25;11.90;99.90
9907;DHT22;4992;51.628;6.664;2022-10-12T10:22:51;12.00;99.90
9907;DHT22;4992;51.628;6.664;2022-10-12T10:25:21;12.10;99.90
9907;DHT22;4992;51.628;6.664;2022-10-12T10:27:47;12.20;99.90
9907;DHT22;4992;51.628;6.664;2022-10-12T10:32:44;12.30;99.90
9907;DHT22;4992;51.628;6.664;2022-10-12T10:37:44;12.40;99.90
9907;DHT22;4992;51.628;6.664;2022-10-12T10:40:21;12.50;99.90
9907;DHT22;4992;51.628;6.664;2022-10-12T10:43:01;12.60;99.90
9907;DHT22;4992;51.628;6.664;2022-10-12T10:45:43;12.70;99.90
9907;DHT22;4992;51.628;6.664;2022-10-12T10:48:16;12.80;99.90
9907;DHT22;4992;51.628;6.664;2022-10-12T10:50:48;12.90;99.90
9907;DHT22;4992;51.628;6.664;2022-10-12T10:53:24;13.00;99.90
9907;DHT22;4992;51.628;6.664;2022-10-12T10:56:04;13.20;99.90
9907;DHT22;4992;51.628;6.664;2022-10-12T10:58:47;13.40;99.90
9907;DHT22;4992;51.628;6.664;2022-10-12T11:01:18;13.60;99.90
9907;DHT22;4992;51.628;6.664;2022-10-12T11:04:03;13.70;99.90
9907;DHT22;4992;51.628;6.664;2022-10-12T11:06:38;13.90;99.90
9907;DHT22;4992;51.628;6.664;2022-10-12T11:09:23;14.00;99.90
9907;DHT22;4992;51.628;6.664;2022-10-12T11:12:01;14.20;99.90
9907;DHT22;4992;51.628;6.664;2022-10-12T11:14:42;14.40;99.90
9907;DHT22;4992;51.628;6.664;2022-10-12T11:20:05;14.80;99.90
9907;DHT22;4992;51.628;6.664;2022-10-12T11:22:45;15.20;99.90
9907;DHT22;4992;51.628;6.664;2022-10-12T11:25:50;15.60;99.90
9907;DHT22;4992;51.628;6.664;2022-10-12T11:28:13;16.00;99.90
9907;DHT22;4992;51.628;6.664;2022-10-12T11:30:44;16.40;99.90
9907;DHT22;4992;51.628;6.664;2022-10-12T11:33:14;16.50;99.90
9907;DHT22;4992;51.628;6.664;2022-10-12T11:35:44;16.50;99.90
9907;DHT22;4992;51.628;6.664;2022-10-12T11:38:23;16.50;99.90
9907;DHT22;4992;51.628;6.664;2022-10-12T11:41:11;16.50;99.90
9907;DHT22;4992;51.628;6.664;2022-10-12T11:44:04;16.50;99.90
9907;DHT22;4992;51.628;6.664;2022-10-12T11:46:38;16.50;99.90
9907;DHT22;4992;51.628;6.664;2022-10-12T11:49:15;16.60;99.90
9907;DHT22;4992;51.628;6.664;2022-10-12T11:51:46;16.60;99.90
9907;DHT22;4992;51.628;6.664;2022-10-12T11:57:04;16.80;99.90
9907;DHT22;4992;51.628;6.664;2022-10-12T11:59:40;17.00;99.90
9907;DHT22;4992;51.628;6.664;2022-10-12T12:02:22;17.30;99.90
9907;DHT22;4992;51.628;6.664;2022-10-12T12:04:49;18.00;99.90
9907;DHT22;4992;51.628;6.664;2022-10-12T12:09:47;18.70;99.90
9907;DHT22;4992;51.628;6.664;2022-10-12T12:12:23;18.80;99.90
9907;DHT22;4992;51.628;6.664;2022-10-12T12:19:47;18.80;99.90
9907;DHT22;4992;51.628;6.664;2022-10-12T12:24:55;20.10;99.90
9907;DHT22;4992;51.628;6.664;2022-10-12T12:27:29;20.80;99.90
9907;DHT22;4992;51.628;6.664;2022-10-12T12:29:56;21.10;99.90
9907;DHT22;4992;51.628;6.664;2022-10-12T12:32:24;21.40;99.90
9907;DHT22;4992;51.628;6.664;2022-10-12T12:34:56;21.50;99.90
9907;DHT22;4992;51.628;6.664;2022-10-12T12:37:25;21.30;99.90
9907;DHT22;4992;51.628;6.664;2022-10-12T12:39:55;21.00;99.90
9907;DHT22;4992;51.628;6.664;2022-10-12T12:42:24;20.80;99.90
9907;DHT22;4992;51.628;6.664;2022-10-12T12:44:50;20.60;99.90
9907;DHT22;4992;51.628;6.664;2022-10-12T12:47:20;20.40;99.90
9907;DHT22;4992;51.628;6.664;2022-10-12T12:49:57;20.50;99.90
9907;DHT22;4992;51.628;6.664;2022-10-12T12:52:28;20.90;99.90
9907;DHT22;4992;51.628;6.664;2022-10-12T13:03:55;22.60;99.90
9907;DHT22;4992;51.628;6.664;2022-10-12T13:06:53;22.80;99.90
9907;DHT22;4992;51.628;6.664;2022-10-12T13:09:51;22.70;99.90
9907;DHT22;4992;51.628;6.664;2022-10-12T13:12:31;23.10;99.90
9907;DHT22;4992;51.628;6.664;2022-10-12T13:20:45;22.80;99.90
9907;DHT22;4992;51.628;6.664;2022-10-12T13:23:16;22.90;99.90
9907;DHT22;4992;51.628;6.664;2022-10-12T13:26:01;23.10;99.90
9907;DHT22;4992;51.628;6.664;2022-10-12T13:28:31;23.10;99.90
9907;DHT22;4992;51.628;6.664;2022-10-12T13:31:20;22.70;99.90
9907;DHT22;4992;51.628;6.664;2022-10-12T13:37:01;22.10;99.90
9907;DHT22;4992;51.628;6.664;2022-10-12T13:39:28;22.00;99.90
9907;DHT22;4992;51.628;6.664;2022-10-12T13:41:58;22.10;99.90
9907;DHT22;4992;51.628;6.664;2022-10-12T13:44:30;22.20;99.90
9907;DHT22;4992;51.628;6.664;2022-10-12T13:47:00;22.10;99.90
9907;DHT22;4992;51.628;6.664;2022-10-12T13:49:32;21.90;99.90
9907;DHT22;4992;51.628;6.664;2022-10-12T13:54:47;20.70;99.90
9907;DHT22;4992;51.628;6.664;2022-10-12T13:59:46;19.60;99.90
9907;DHT22;4992;51.628;6.664;2022-10-12T14:02:22;19.20;99.90
9907;DHT22;4992;51.628;6.664;2022-10-12T14:04:52;18.80;99.90
9907;DHT22;4992;51.628;6.664;2022-10-12T14:07:22;18.50;99.90
9907;DHT22;4992;51.628;6.664;2022-10-12T14:09:53;18.30;99.90
9907;DHT22;4992;51.628;6.664;2022-10-12T14:12:19;18.00;99.90
9907;DHT22;4992;51.628;6.664;2022-10-12T14:14:45;17.80;99.90
9907;DHT22;4992;51.628;6.664;2022-10-12T14:17:18;17.60;99.90
9907;DHT22;4992;51.628;6.664;2022-10-12T14:19:47;17.40;99.90
9907;DHT22;4992;51.628;6.664;2022-10-12T14:22:26;17.30;99.90
9907;DHT22;4992;51.628;6.664;2022-10-12T14:25:08;17.10;99.90
9907;DHT22;4992;51.628;6.664;2022-10-12T14:27:37;17.10;99.90
9907;DHT22;4992;51.628;6.664;2022-10-12T14:30:13;17.00;99.90
9907;DHT22;4992;51.628;6.664;2022-10-12T14:32:41;17.00;99.90
9907;DHT22;4992;51.628;6.664;2022-10-12T14:35:24;17.00;99.90
9907;DHT22;4992;51.628;6.664;2022-10-12T14:37:51;17.00;99.90
9907;DHT22;4992;51.628;6.664;2022-10-12T14:40:30;17.00;99.90
9907;DHT22;4992;51.628;6.664;2022-10-12T14:45:29;16.90;99.90
9907;DHT22;4992;51.628;6.664;2022-10-12T14:47:55;16.90;99.90
9907;DHT22;4992;51.628;6.664;2022-10-12T14:50:21;16.80;99.90
9907;DHT22;4992;51.628;6.664;2022-10-12T14:52:52;16.80;99.90
9907;DHT22;4992;51.628;6.664;2022-10-12T14:55:22;16.60;99.90
9907;DHT22;4992;51.628;6.664;2022-10-12T14:57:48;16.60;99.90
9907;DHT22;4992;51.628;6.664;2022-10-12T15:00:17;16.60;99.90
9907;DHT22;4992;51.628;6.664;2022-10-12T15:02:43;16.70;99.90
9907;DHT22;4992;51.628;6.664;2022-10-12T15:05:11;16.70;99.90
9907;DHT22;4992;51.628;6.664;2022-10-12T15:07:36;16.80;99.90
9907;DHT22;4992;51.628;6.664;2022-10-12T15:10:03;16.70;99.90
9907;DHT22;4992;51.628;6.664;2022-10-12T15:12:29;16.70;99.90
9907;DHT22;4992;51.628;6.664;2022-10-12T15:14:56;16.70;99.90
9907;DHT22;4992;51.628;6.664;2022-10-12T15:17:22;16.60;99.90
9907;DHT22;4992;51.628;6.664;2022-10-12T15:19:49;16.60;99.90
9907;DHT22;4992;51.628;6.664;2022-10-12T15:22:18;16.50;99.90
9907;DHT22;4992;51.628;6.664;2022-10-12T15:24:44;16.40;99.90
9907;DHT22;4992;51.628;6.664;2022-10-12T15:27:10;16.40;99.90
9907;DHT22;4992;51.628;6.664;2022-10-12T15:29:35;16.20;99.90
9907;DHT22;4992;51.628;6.664;2022-10-12T15:32:01;16.00;99.90
9907;DHT22;4992;51.628;6.664;2022-10-12T15:34:27;16.00;99.90
9907;DHT22;4992;51.628;6.664;2022-10-12T15:36:52;15.90;99.90
9907;DHT22;4992;51.628;6.664;2022-10-12T15:39:18;15.80;99.90
9907;DHT22;4992;51.628;6.664;2022-10-12T15:41:44;15.70;99.90
9907;DHT22;4992;51.628;6.664;2022-10-12T15:44:14;15.60;99.90
9907;DHT22;4992;51.628;6.664;2022-10-12T15:46:41;15.60;99.90
9907;DHT22;4992;51.628;6.664;2022-10-12T15:49:07;15.50;99.90
9907;DHT22;4992;51.628;6.664;2022-10-12T15:51:55;15.40;99.90
9907;DHT22;4992;51.628;6.664;2022-10-12T15:54:20;15.30;99.90
9907;DHT22;4992;51.628;6.664;2022-10-12T15:56:45;15.10;99.90
9907;DHT22;4992;51.628;6.664;2022-10-12T15:59:11;15.00;99.90
9907;DHT22;4992;51.628;6.664;2022-10-12T16:01:37;14.90;99.90
9907;DHT22;4992;51.628;6.664;2022-10-12T16:04:04;14.80;99.90
9907;DHT22;4992;51.628;6.664;2022-10-12T16:06:30;14.70;99.90
9907;DHT22;4992;51.628;6.664;2022-10-12T16:08:56;14.50;99.90
9907;DHT22;4992;51.628;6.664;2022-10-12T16:11:21;14.50;99.90
9907;DHT22;4992;51.628;6.664;2022-10-12T16:13:47;14.40;99.90
9907;DHT22;4992;51.628;6.664;2022-10-12T16:16:15;14.30;99.90
9907;DHT22;4992;51.628;6.664;2022-10-12T16:18:40;14.20;99.90
9907;DHT22;4992;51.628;6.664;2022-10-12T16:21:06;14.20;99.90
9907;DHT22;4992;51.628;6.664;2022-10-12T16:23:34;14.00;99.90
9907;DHT22;4992;51.628;6.664;2022-10-12T16:26:06;14.00;99.90
9907;DHT22;4992;51.628;6.664;2022-10-12T16:28:32;13.90;99.90
9907;DHT22;4992;51.628;6.664;2022-10-12T16:30:58;13.90;99.90
9907;DHT22;4992;51.628;6.664;2022-10-12T16:33:23;13.80;99.90
9907;DHT22;4992;51.628;6.664;2022-10-12T16:35:49;13.80;99.90
9907;DHT22;4992;51.628;6.664;2022-10-12T16:38:14;13.70;99.90
9907;DHT22;4992;51.628;6.664;2022-10-12T16:40:43;13.70;99.90
9907;DHT22;4992;51.628;6.664;2022-10-12T16:43:09;13.60;99.90
9907;DHT22;4992;51.628;6.664;2022-10-12T16:45:35;13.50;99.90
9907;DHT22;4992;51.628;6.664;2022-10-12T16:48:00;13.30;99.90
9907;DHT22;4992;51.628;6.664;2022-10-12T16:50:26;13.20;99.90
9907;DHT22;4992;51.628;6.664;2022-10-12T16:52:51;13.10;99.90
9907;DHT22;4992;51.628;6.664;2022-10-12T16:55:18;13.00;99.90
9907;DHT22;4992;51.628;6.664;2022-10-12T16:57:44;12.90;99.90
9907;DHT22;4992;51.628;6.664;2022-10-12T17:00:12;12.80;99.90
9907;DHT22;4992;51.628;6.664;2022-10-12T17:02:39;12.70;99.90
9907;DHT22;4992;51.628;6.664;2022-10-12T17:05:04;12.70;99.90
9907;DHT22;4992;51.628;6.664;2022-10-12T17:07:30;12.60;99.90
9907;DHT22;4992;51.628;6.664;2022-10-12T17:09:56;12.50;99.90
9907;DHT22;4992;51.628;6.664;2022-10-12T17:12:22;12.50;99.90
9907;DHT22;4992;51.628;6.664;2022-10-12T17:14:48;12.40;99.90
9907;DHT22;4992;51.628;6.664;2022-10-12T17:17:14;12.30;99.90
9907;DHT22;4992;51.628;6.664;2022-10-12T17:19:40;12.20;99.90
9907;DHT22;4992;51.628;6.664;2022-10-12T17:22:07;12.10;99.90
9907;DHT22;4992;51.628;6.664;2022-10-12T17:24:35;12.00;99.90
9907;DHT22;4992;51.628;6.664;2022-10-12T17:27:02;12.00;99.90
9907;DHT22;4992;51.628;6.664;2022-10-12T17:29:29;11.90;99.90
9907;DHT22;4992;51.628;6.664;2022-10-12T17:31:55;11.80;99.90
9907;DHT22;4992;51.628;6.664;2022-10-12T17:34:26;11.70;99.90
9907;DHT22;4992;51.628;6.664;2022-10-12T17:36:53;11.70;99.90
9907;DHT22;4992;51.628;6.664;2022-10-12T17:39:20;11.60;99.90
9907;DHT22;4992;51.628;6.664;2022-10-12T17:41:46;11.60;99.90
9907;DHT22;4992;51.628;6.664;2022-10-12T17:44:12;11.50;99.90
9907;DHT22;4992;51.628;6.664;2022-10-12T17:46:39;11.50;99.90
9907;DHT22;4992;51.628;6.664;2022-10-12T17:49:06;11.40;99.90
9907;DHT22;4992;51.628;6.664;2022-10-12T17:51:32;11.30;99.90
9907;DHT22;4992;51.628;6.664;2022-10-12T17:53:57;11.20;99.90
9907;DHT22;4992;51.628;6.664;2022-10-12T17:56:23;11.10;99.90